sensor_id;sensor_type;location;lat;lon;timestamp;pressure;altitude;pressure_sealevel;temperature;humidity
34237;BME280;20501;45.956;13.632;2022-11-09T00:01:17;101071.59;;;14.15;66.68
34237;BME280;20501;45.956;13.632;2022-11-09T00:03:43;101072.38;;;15.07;63.90
34237;BME280;20501;45.956;13.632;2022-11-09T00:06:08;101067.69;;;15.17;63.29
34237;BME280;20501;45.956;13.632;2022-11-09T00:08:36;101070.78;;;15.41;62.78
34237;BME280;20501;45.956;13.632;2022-11-09T00:11:09;101071.47;;;15.43;62.34
34237;BME280;20501;45.956;13.632;2022-11-09T00:13:40;101063.50;;;15.50;62.40
34237;BME280;20501;45.956;13.632;2022-11-09T00:16:07;101072.34;;;15.52;62.12
34237;BME280;20501;45.956;13.632;2022-11-09T00:18:34;101070.13;;;15.47;62.54
34237;BME280;20501;45.956;13.632;2022-11-09T00:21:10;101069.16;;;15.56;62.19
34237;BME280;20501;45.956;13.632;2022-11-09T00:23:36;101070.53;;;15.60;62.10
34237;BME280;20501;45.956;13.632;2022-11-09T00:26:02;101072.44;;;15.60;62.12
34237;BME280;20501;45.956;13.632;2022-11-09T00:28:28;101065.63;;;15.64;62.08
34237;BME280;20501;45.956;13.632;2022-11-09T00:31:01;101061.38;;;15.61;62.07
34237;BME280;20501;45.956;13.632;2022-11-09T00:33:27;101065.75;;;15.54;62.41
34237;BME280;20501;45.956;13.632;2022-11-09T00:35:53;101071.34;;;15.53;62.79
34237;BME280;20501;45.956;13.632;2022-11-09T00:38:18;101062.06;;;15.11;63.27
34237;BME280;20501;45.956;13.632;2022-11-09T00:40:44;101059.84;;;14.42;66.03
34237;BME280;20501;45.956;13.632;2022-11-09T00:43:09;101062.69;;;15.31;63.44
34237;BME280;20501;45.956;13.632;2022-11-09T00:45:35;101062.84;;;14.85;64.72
34237;BME280;20501;45.956;13.632;2022-11-09T00:48:01;101063.38;;;13.78;68.02
34237;BME280;20501;45.956;13.632;2022-11-09T00:50:26;101059.78;;;14.52;66.28
34237;BME280;20501;45.956;13.632;2022-11-09T00:53:10;101060.91;;;14.95;64.86
34237;BME280;20501;45.956;13.632;2022-11-09T00:55:36;101054.22;;;14.72;65.35
34237;BME280;20501;45.956;13.632;2022-11-09T00:58:01;101052.72;;;15.13;64.56
34237;BME280;20501;45.956;13.632;2022-11-09T01:00:26;101051.41;;;15.44;63.38
34237;BME280;20501;45.956;13.632;2022-11-09T01:02:52;101053.38;;;14.89;63.62
34237;BME280;20501;45.956;13.632;2022-11-09T01:05:18;101055.41;;;13.95;67.18
34237;BME280;20501;45.956;13.632;2022-11-09T01:07:43;101049.25;;;12.98;69.57
34237;BME280;20501;45.956;13.632;2022-11-09T01:10:09;101039.41;;;12.48;70.40
34237;BME280;20501;45.956;13.632;2022-11-09T01:12:34;101033.16;;;12.47;70.45
34237;BME280;20501;45.956;13.632;2022-11-09T01:15:00;101034.56;;;12.61;71.15
34237;BME280;20501;45.956;13.632;2022-11-09T01:17:25;101034.34;;;13.79;68.92
34237;BME280;20501;45.956;13.632;2022-11-09T01:19:51;101034.25;;;13.71;68.42
34237;BME280;20501;45.956;13.632;2022-11-09T01:22:17;101038.28;;;14.40;65.64
34237;BME280;20501;45.956;13.632;2022-11-09T01:24:43;101041.53;;;14.44;66.19
34237;BME280;20501;45.956;13.632;2022-11-09T01:27:08;101028.72;;;13.62;68.04
34237;BME280;20501;45.956;13.632;2022-11-09T01:29:34;101029.38;;;13.17;71.04
34237;BME280;20501;45.956;13.632;2022-11-09T01:31:59;101026.53;;;13.94;68.24
34237;BME280;20501;45.956;13.632;2022-11-09T01:34:27;101021.44;;;14.55;64.84
34237;BME280;20501;45.956;13.632;2022-11-09T01:36:53;101018.75;;;13.53;66.74
34237;BME280;20501;45.956;13.632;2022-11-09T01:39:18;101035.44;;;12.72;69.70
34237;BME280;20501;45.956;13.632;2022-11-09T01:41:44;101035.13;;;12.26;71.42
34237;BME280;20501;45.956;13.632;2022-11-09T01:44:15;101029.31;;;12.40;71.82
34237;BME280;20501;45.956;13.632;2022-11-09T01:46:48;101023.59;;;12.33;71.26
34237;BME280;20501;45.956;13.632;2022-11-09T01:52:15;101013.91;;;13.37;68.27
34237;BME280;20501;45.956;13.632;2022-11-09T01:54:45;101014.75;;;12.61;71.46
34237;BME280;20501;45.956;13.632;2022-11-09T01:57:18;101010.47;;;12.38;71.82
34237;BME280;20501;45.956;13.632;2022-11-09T01:59:49;101012.88;;;12.61;70.38
34237;BME280;20501;45.956;13.632;2022-11-09T02:02:16;101012.72;;;12.14;72.00
34237;BME280;20501;45.956;13.632;2022-11-09T02:04:58;101010.03;;;12.82;69.78
34237;BME280;20501;45.956;13.632;2022-11-09T02:07:25;101014.06;;;12.68;70.66
34237;BME280;20501;45.956;13.632;2022-11-09T02:09:55;101007.75;;;12.48;70.52
34237;BME280;20501;45.956;13.632;2022-11-09T02:12:24;101008.28;;;13.01;70.58
34237;BME280;20501;45.956;13.632;2022-11-09T02:14:51;101006.47;;;12.62;69.80
34237;BME280;20501;45.956;13.632;2022-11-09T02:17:18;101004.03;;;12.59;70.80
34237;BME280;20501;45.956;13.632;2022-11-09T02:19:45;101012.59;;;12.35;71.18
34237;BME280;20501;45.956;13.632;2022-11-09T02:22:10;101010.06;;;12.63;70.63
34237;BME280;20501;45.956;13.632;2022-11-09T02:24:36;101004.31;;;12.95;71.13
34237;BME280;20501;45.956;13.632;2022-11-09T02:27:04;100998.97;;;14.53;66.47
34237;BME280;20501;45.956;13.632;2022-11-09T02:29:36;101003.00;;;13.57;66.37
34237;BME280;20501;45.956;13.632;2022-11-09T02:32:23;101003.13;;;13.08;71.03
34237;BME280;20501;45.956;13.632;2022-11-09T02:34:50;100997.28;;;13.88;68.33
34237;BME280;20501;45.956;13.632;2022-11-09T02:39:53;101003.47;;;13.80;68.42
34237;BME280;20501;45.956;13.632;2022-11-09T02:42:19;100998.00;;;14.72;65.54
34237;BME280;20501;45.956;13.632;2022-11-09T02:44:48;101002.94;;;15.21;63.66
34237;BME280;20501;45.956;13.632;2022-11-09T02:47:15;100996.03;;;14.64;65.31
34237;BME280;20501;45.956;13.632;2022-11-09T02:49:40;100992.97;;;13.20;69.04
34237;BME280;20501;45.956;13.632;2022-11-09T02:52:06;101002.31;;;12.38;71.72
34237;BME280;20501;45.956;13.632;2022-11-09T02:54:32;100994.50;;;12.45;72.93
34237;BME280;20501;45.956;13.632;2022-11-09T02:56:57;100991.06;;;12.43;70.88
34237;BME280;20501;45.956;13.632;2022-11-09T02:59:23;100989.66;;;12.59;71.66
34237;BME280;20501;45.956;13.632;2022-11-09T03:01:48;100991.06;;;12.53;71.03
34237;BME280;20501;45.956;13.632;2022-11-09T03:04:13;100990.50;;;13.74;68.59
34237;BME280;20501;45.956;13.632;2022-11-09T03:06:39;100999.88;;;13.52;67.93
34237;BME280;20501;45.956;13.632;2022-11-09T03:09:06;100993.75;;;14.23;67.65
34237;BME280;20501;45.956;13.632;2022-11-09T03:11:34;100986.47;;;13.50;67.70
34237;BME280;20501;45.956;13.632;2022-11-09T03:14:00;100988.63;;;14.02;67.84
34237;BME280;20501;45.956;13.632;2022-11-09T03:16:26;100978.63;;;14.21;67.10
34237;BME280;20501;45.956;13.632;2022-11-09T03:18:52;100984.75;;;14.77;64.73
34237;BME280;20501;45.956;13.632;2022-11-09T03:21:18;100986.47;;;14.78;65.28
34237;BME280;20501;45.956;13.632;2022-11-09T03:23:44;100985.88;;;15.11;64.13
34237;BME280;20501;45.956;13.632;2022-11-09T03:26:10;100981.91;;;15.31;63.48
34237;BME280;20501;45.956;13.632;2022-11-09T03:28:35;100978.84;;;15.35;63.49
34237;BME280;20501;45.956;13.632;2022-11-09T03:31:01;100980.97;;;15.49;62.85
34237;BME280;20501;45.956;13.632;2022-11-09T03:33:26;100987.13;;;15.25;63.80
34237;BME280;20501;45.956;13.632;2022-11-09T03:35:51;100979.41;;;15.38;63.59
34237;BME280;20501;45.956;13.632;2022-11-09T03:38:17;100971.06;;;15.40;63.54
34237;BME280;20501;45.956;13.632;2022-11-09T03:40:42;100975.69;;;15.47;63.35
34237;BME280;20501;45.956;13.632;2022-11-09T03:43:08;100982.00;;;15.22;64.20
34237;BME280;20501;45.956;13.632;2022-11-09T03:45:33;100983.38;;;15.52;63.33
34237;BME280;20501;45.956;13.632;2022-11-09T03:47:59;100976.94;;;15.61;63.11
34237;BME280;20501;45.956;13.632;2022-11-09T03:50:29;100967.13;;;15.34;63.96
34237;BME280;20501;45.956;13.632;2022-11-09T03:52:56;100970.91;;;15.15;64.60
34237;BME280;20501;45.956;13.632;2022-11-09T03:55:21;100965.22;;;14.19;67.47
34237;BME280;20501;45.956;13.632;2022-11-09T03:57:47;100960.00;;;13.14;68.70
34237;BME280;20501;45.956;13.632;2022-11-09T04:00:15;100962.69;;;12.37;71.34
34237;BME280;20501;45.956;13.632;2022-11-09T04:02:41;100964.66;;;12.65;70.50
34237;BME280;20501;45.956;13.632;2022-11-09T04:05:07;100962.69;;;12.67;70.52
34237;BME280;20501;45.956;13.632;2022-11-09T04:07:33;100956.59;;;13.03;71.68
34237;BME280;20501;45.956;13.632;2022-11-09T04:09:58;100948.56;;;13.58;69.30
34237;BME280;20501;45.956;13.632;2022-11-09T04:12:23;100955.13;;;13.84;66.57
34237;BME280;20501;45.956;13.632;2022-11-09T04:14:49;100957.34;;;13.98;65.52
34237;BME280;20501;45.956;13.632;2022-11-09T04:17:14;100961.88;;;15.06;64.77
34237;BME280;20501;45.956;13.632;2022-11-09T04:19:40;100954.47;;;14.72;64.74
34237;BME280;20501;45.956;13.632;2022-11-09T04:22:06;100950.34;;;14.50;65.83
34237;BME280;20501;45.956;13.632;2022-11-09T04:24:31;100959.69;;;14.29;66.30
34237;BME280;20501;45.956;13.632;2022-11-09T04:26:56;100964.16;;;15.19;64.25
34237;BME280;20501;45.956;13.632;2022-11-09T04:29:22;100969.88;;;14.09;67.86
34237;BME280;20501;45.956;13.632;2022-11-09T04:31:48;100959.88;;;13.54;66.92
34237;BME280;20501;45.956;13.632;2022-11-09T04:34:14;100963.56;;;14.08;66.76
34237;BME280;20501;45.956;13.632;2022-11-09T04:36:40;100962.16;;;14.77;64.22
34237;BME280;20501;45.956;13.632;2022-11-09T04:39:05;100955.59;;;14.25;66.68
34237;BME280;20501;45.956;13.632;2022-11-09T04:41:31;100947.34;;;14.97;64.89
34237;BME280;20501;45.956;13.632;2022-11-09T04:43:56;100954.44;;;15.16;64.24
34237;BME280;20501;45.956;13.632;2022-11-09T04:46:21;100949.69;;;13.28;68.52
34237;BME280;20501;45.956;13.632;2022-11-09T04:48:47;100952.88;;;13.13;70.45
34237;BME280;20501;45.956;13.632;2022-11-09T04:51:13;100952.41;;;12.61;71.04
34237;BME280;20501;45.956;13.632;2022-11-09T04:53:38;100946.81;;;13.67;68.81
34237;BME280;20501;45.956;13.632;2022-11-09T04:56:05;100954.97;;;13.67;69.51
34237;BME280;20501;45.956;13.632;2022-11-09T04:58:31;100947.66;;;14.14;68.06
34237;BME280;20501;45.956;13.632;2022-11-09T05:01:05;100942.09;;;13.69;68.77
34237;BME280;20501;45.956;13.632;2022-11-09T05:03:31;100940.34;;;14.32;66.47
34237;BME280;20501;45.956;13.632;2022-11-09T05:05:56;100940.72;;;14.37;66.71
34237;BME280;20501;45.956;13.632;2022-11-09T05:08:22;100945.09;;;15.19;64.22
34237;BME280;20501;45.956;13.632;2022-11-09T05:10:47;100935.28;;;15.00;63.93
34237;BME280;20501;45.956;13.632;2022-11-09T05:13:13;100938.25;;;15.50;63.28
34237;BME280;20501;45.956;13.632;2022-11-09T05:15:39;100949.72;;;15.61;62.82
34237;BME280;20501;45.956;13.632;2022-11-09T05:18:05;100957.72;;;15.63;62.58
34237;BME280;20501;45.956;13.632;2022-11-09T05:20:32;100957.78;;;13.48;66.89
34237;BME280;20501;45.956;13.632;2022-11-09T05:22:58;100950.66;;;13.92;68.36
34237;BME280;20501;45.956;13.632;2022-11-09T05:25:42;100948.41;;;14.60;65.88
34237;BME280;20501;45.956;13.632;2022-11-09T05:28:08;100940.81;;;14.46;65.84
34237;BME280;20501;45.956;13.632;2022-11-09T05:30:33;100938.75;;;14.84;65.39
34237;BME280;20501;45.956;13.632;2022-11-09T05:32:59;100944.19;;;15.10;64.71
34237;BME280;20501;45.956;13.632;2022-11-09T05:35:24;100949.63;;;14.66;65.79
34237;BME280;20501;45.956;13.632;2022-11-09T05:37:50;100950.41;;;15.29;64.09
34237;BME280;20501;45.956;13.632;2022-11-09T05:40:17;100957.28;;;15.41;63.63
34237;BME280;20501;45.956;13.632;2022-11-09T05:42:43;100946.69;;;15.04;64.74
34237;BME280;20501;45.956;13.632;2022-11-09T05:45:13;100945.31;;;14.99;63.28
34237;BME280;20501;45.956;13.632;2022-11-09T05:47:41;100939.72;;;12.61;69.29
34237;BME280;20501;45.956;13.632;2022-11-09T05:50:07;100942.78;;;12.96;69.59
34237;BME280;20501;45.956;13.632;2022-11-09T05:52:33;100937.28;;;12.58;70.51
34237;BME280;20501;45.956;13.632;2022-11-09T05:54:59;100943.28;;;12.52;71.77
34237;BME280;20501;45.956;13.632;2022-11-09T05:57:27;100943.81;;;13.32;70.85
34237;BME280;20501;45.956;13.632;2022-11-09T05:59:53;100948.22;;;13.43;68.27
34237;BME280;20501;45.956;13.632;2022-11-09T06:02:19;100950.44;;;14.22;66.48
34237;BME280;20501;45.956;13.632;2022-11-09T06:04:44;100956.66;;;12.83;70.32
34237;BME280;20501;45.956;13.632;2022-11-09T06:07:09;100969.38;;;12.43;71.72
34237;BME280;20501;45.956;13.632;2022-11-09T06:09:35;100962.91;;;13.03;70.33
34237;BME280;20501;45.956;13.632;2022-11-09T06:12:00;100962.47;;;12.98;70.48
34237;BME280;20501;45.956;13.632;2022-11-09T06:14:26;100957.91;;;13.46;68.86
34237;BME280;20501;45.956;13.632;2022-11-09T06:16:51;100961.06;;;12.94;70.12
34237;BME280;20501;45.956;13.632;2022-11-09T06:19:16;100974.34;;;14.36;67.41
34237;BME280;20501;45.956;13.632;2022-11-09T06:21:42;100972.66;;;14.72;65.98
34237;BME280;20501;45.956;13.632;2022-11-09T06:24:08;100971.56;;;14.46;64.09
34237;BME280;20501;45.956;13.632;2022-11-09T06:26:33;100972.88;;;13.12;68.09
34237;BME280;20501;45.956;13.632;2022-11-09T06:28:59;100975.22;;;12.19;71.92
34237;BME280;20501;45.956;13.632;2022-11-09T06:31:25;100973.78;;;12.64;71.20
34237;BME280;20501;45.956;13.632;2022-11-09T06:33:50;100988.19;;;12.74;71.65
34237;BME280;20501;45.956;13.632;2022-11-09T06:36:16;100992.34;;;12.29;73.57
34237;BME280;20501;45.956;13.632;2022-11-09T06:38:42;100978.66;;;12.21;73.20
34237;BME280;20501;45.956;13.632;2022-11-09T06:41:08;100982.66;;;13.23;71.44
34237;BME280;20501;45.956;13.632;2022-11-09T06:43:34;100977.94;;;14.55;65.83
34237;BME280;20501;45.956;13.632;2022-11-09T06:46:02;100979.25;;;14.33;67.09
34237;BME280;20501;45.956;13.632;2022-11-09T06:48:28;100980.41;;;14.48;65.04
34237;BME280;20501;45.956;13.632;2022-11-09T06:50:58;100985.78;;;13.38;70.04
34237;BME280;20501;45.956;13.632;2022-11-09T06:53:24;100979.28;;;13.11;69.53
34237;BME280;20501;45.956;13.632;2022-11-09T06:55:51;100980.59;;;12.97;70.09
34237;BME280;20501;45.956;13.632;2022-11-09T06:58:17;100979.34;;;12.82;70.73
34237;BME280;20501;45.956;13.632;2022-11-09T07:00:44;100988.63;;;12.50;72.89
34237;BME280;20501;45.956;13.632;2022-11-09T07:03:14;100989.66;;;12.59;73.26
34237;BME280;20501;45.956;13.632;2022-11-09T07:05:40;100989.13;;;13.12;71.83
34237;BME280;20501;45.956;13.632;2022-11-09T07:08:05;100997.06;;;13.99;68.81
34237;BME280;20501;45.956;13.632;2022-11-09T07:10:30;100995.31;;;13.80;69.29
34237;BME280;20501;45.956;13.632;2022-11-09T07:12:57;100995.84;;;14.12;68.54
34237;BME280;20501;45.956;13.632;2022-11-09T07:15:22;100993.97;;;13.19;70.47
34237;BME280;20501;45.956;13.632;2022-11-09T07:17:48;100995.88;;;12.98;71.24
34237;BME280;20501;45.956;13.632;2022-11-09T07:20:14;101001.47;;;12.58;73.48
34237;BME280;20501;45.956;13.632;2022-11-09T07:22:39;100997.88;;;13.06;72.52
34237;BME280;20501;45.956;13.632;2022-11-09T07:25:07;101003.78;;;13.39;70.68
34237;BME280;20501;45.956;13.632;2022-11-09T07:27:33;100995.06;;;12.49;73.33
34237;BME280;20501;45.956;13.632;2022-11-09T07:29:59;101003.03;;;12.99;70.69
34237;BME280;20501;45.956;13.632;2022-11-09T07:32:25;101002.81;;;13.21;71.96
34237;BME280;20501;45.956;13.632;2022-11-09T07:34:50;101004.69;;;13.96;68.37
34237;BME280;20501;45.956;13.632;2022-11-09T07:37:15;100991.91;;;12.93;71.09
34237;BME280;20501;45.956;13.632;2022-11-09T07:39:42;100990.91;;;12.74;72.60
34237;BME280;20501;45.956;13.632;2022-11-09T07:42:07;100991.25;;;13.19;71.64
34237;BME280;20501;45.956;13.632;2022-11-09T07:44:33;100992.34;;;12.49;74.18
34237;BME280;20501;45.956;13.632;2022-11-09T07:46:58;100998.06;;;12.56;73.59
34237;BME280;20501;45.956;13.632;2022-11-09T07:49:24;101003.22;;;14.01;69.31
34237;BME280;20501;45.956;13.632;2022-11-09T07:51:49;100999.44;;;12.99;71.52
34237;BME280;20501;45.956;13.632;2022-11-09T07:54:14;101004.19;;;12.87;73.27
34237;BME280;20501;45.956;13.632;2022-11-09T07:56:40;100995.31;;;12.75;72.99
34237;BME280;20501;45.956;13.632;2022-11-09T07:59:05;101000.06;;;12.63;72.78
34237;BME280;20501;45.956;13.632;2022-11-09T08:01:31;100991.19;;;12.32;74.30
34237;BME280;20501;45.956;13.632;2022-11-09T08:03:56;101005.41;;;13.12;72.20
34237;BME280;20501;45.956;13.632;2022-11-09T08:06:21;100992.66;;;13.32;70.45
34237;BME280;20501;45.956;13.632;2022-11-09T08:08:53;101002.53;;;13.14;70.48
34237;BME280;20501;45.956;13.632;2022-11-09T08:11:18;100994.34;;;13.34;71.23
34237;BME280;20501;45.956;13.632;2022-11-09T08:13:44;100993.50;;;13.33;70.38
34237;BME280;20501;45.956;13.632;2022-11-09T08:16:10;100989.97;;;13.13;70.64
34237;BME280;20501;45.956;13.632;2022-11-09T08:18:35;101003.06;;;14.03;68.11
34237;BME280;20501;45.956;13.632;2022-11-09T08:21:01;100999.50;;;14.38;67.77
34237;BME280;20501;45.956;13.632;2022-11-09T08:23:27;100999.16;;;14.05;68.18
34237;BME280;20501;45.956;13.632;2022-11-09T08:25:53;100997.28;;;13.12;72.02
34237;BME280;20501;45.956;13.632;2022-11-09T08:28:18;100996.56;;;14.14;69.24
34237;BME280;20501;45.956;13.632;2022-11-09T08:30:44;100998.78;;;13.72;70.57
34237;BME280;20501;45.956;13.632;2022-11-09T08:33:11;101002.59;;;14.07;69.74
34237;BME280;20501;45.956;13.632;2022-11-09T08:35:37;100993.53;;;14.89;66.58
34237;BME280;20501;45.956;13.632;2022-11-09T08:38:04;100990.13;;;15.13;65.70
34237;BME280;20501;45.956;13.632;2022-11-09T08:40:31;100992.31;;;13.83;71.24
34237;BME280;20501;45.956;13.632;2022-11-09T08:43:04;100997.09;;;13.24;73.14
34237;BME280;20501;45.956;13.632;2022-11-09T08:45:34;101001.69;;;13.13;74.01
34237;BME280;20501;45.956;13.632;2022-11-09T08:48:01;101001.25;;;13.28;72.99
34237;BME280;20501;45.956;13.632;2022-11-09T08:50:28;101010.19;;;14.04;70.96
34237;BME280;20501;45.956;13.632;2022-11-09T08:52:54;100998.38;;;14.41;68.75
34237;BME280;20501;45.956;13.632;2022-11-09T08:55:20;101005.19;;;13.53;72.33
34237;BME280;20501;45.956;13.632;2022-11-09T08:57:46;100994.75;;;13.39;72.88
34237;BME280;20501;45.956;13.632;2022-11-09T09:00:12;101003.94;;;14.21;70.04
34237;BME280;20501;45.956;13.632;2022-11-09T09:02:38;101003.94;;;14.21;69.96
34237;BME280;20501;45.956;13.632;2022-11-09T09:05:04;101012.78;;;13.50;73.44
34237;BME280;20501;45.956;13.632;2022-11-09T09:07:29;101007.84;;;13.06;75.35
34237;BME280;20501;45.956;13.632;2022-11-09T09:09:55;101008.53;;;13.18;74.97
34237;BME280;20501;45.956;13.632;2022-11-09T09:12:20;101006.97;;;14.18;70.83
34237;BME280;20501;45.956;13.632;2022-11-09T09:14:46;101015.81;;;14.38;69.58
34237;BME280;20501;45.956;13.632;2022-11-09T09:17:11;101023.34;;;13.81;72.07
34237;BME280;20501;45.956;13.632;2022-11-09T09:19:37;101019.22;;;13.76;71.67
34237;BME280;20501;45.956;13.632;2022-11-09T09:22:02;101020.91;;;14.05;70.88
34237;BME280;20501;45.956;13.632;2022-11-09T09:24:28;101008.56;;;13.55;72.56
34237;BME280;20501;45.956;13.632;2022-11-09T09:26:54;101013.88;;;14.49;69.50
34237;BME280;20501;45.956;13.632;2022-11-09T09:29:19;101010.88;;;15.14;66.81
34237;BME280;20501;45.956;13.632;2022-11-09T09:31:44;101015.19;;;14.99;67.35
34237;BME280;20501;45.956;13.632;2022-11-09T09:34:10;101011.41;;;14.92;67.76
34237;BME280;20501;45.956;13.632;2022-11-09T09:36:37;101006.97;;;14.36;70.87
34237;BME280;20501;45.956;13.632;2022-11-09T09:39:03;101013.91;;;15.11;67.07
34237;BME280;20501;45.956;13.632;2022-11-09T09:41:45;101017.41;;;15.56;65.41
34237;BME280;20501;45.956;13.632;2022-11-09T09:44:16;101018.38;;;14.94;70.57
34237;BME280;20501;45.956;13.632;2022-11-09T09:49:41;101011.72;;;15.15;69.41
34237;BME280;20501;45.956;13.632;2022-11-09T09:57:25;101014.03;;;14.65;70.85
34237;BME280;20501;45.956;13.632;2022-11-09T09:59:54;101020.69;;;14.17;76.79
34237;BME280;20501;45.956;13.632;2022-11-09T10:02:29;101012.81;;;14.42;72.12
34237;BME280;20501;45.956;13.632;2022-11-09T10:04:58;101019.78;;;14.44;71.85
34237;BME280;20501;45.956;13.632;2022-11-09T10:07:47;101012.31;;;14.28;74.88
34237;BME280;20501;45.956;13.632;2022-11-09T10:10:25;101012.34;;;14.64;72.46
34237;BME280;20501;45.956;13.632;2022-11-09T10:16:02;101002.47;;;14.99;69.36
34237;BME280;20501;45.956;13.632;2022-11-09T10:24:13;100994.84;;;14.49;74.15
34237;BME280;20501;45.956;13.632;2022-11-09T10:26:47;100989.19;;;14.24;75.04
34237;BME280;20501;45.956;13.632;2022-11-09T10:32:22;100985.44;;;14.61;71.96
34237;BME280;20501;45.956;13.632;2022-11-09T10:37:46;100984.59;;;14.61;72.06
34237;BME280;20501;45.956;13.632;2022-11-09T10:40:20;100982.16;;;14.67;71.24
34237;BME280;20501;45.956;13.632;2022-11-09T10:42:56;100982.34;;;14.20;74.88
34237;BME280;20501;45.956;13.632;2022-11-09T10:45:33;100984.06;;;14.39;73.88
34237;BME280;20501;45.956;13.632;2022-11-09T10:47:59;100983.16;;;13.84;75.80
34237;BME280;20501;45.956;13.632;2022-11-09T10:53:22;100986.34;;;13.80;74.49
34237;BME280;20501;45.956;13.632;2022-11-09T10:58:34;100984.06;;;13.75;74.94
34237;BME280;20501;45.956;13.632;2022-11-09T11:04:17;100983.13;;;14.84;70.52
34237;BME280;20501;45.956;13.632;2022-11-09T11:06:43;100986.16;;;14.45;72.25
34237;BME280;20501;45.956;13.632;2022-11-09T11:11:36;100973.75;;;14.43;72.33
34237;BME280;20501;45.956;13.632;2022-11-09T11:16:38;100975.28;;;14.81;70.94
34237;BME280;20501;45.956;13.632;2022-11-09T11:19:04;100978.38;;;15.13;69.45
34237;BME280;20501;45.956;13.632;2022-11-09T11:21:30;100975.81;;;14.85;70.84
34237;BME280;20501;45.956;13.632;2022-11-09T11:24:19;100968.94;;;15.60;67.32
34237;BME280;20501;45.956;13.632;2022-11-09T11:29:28;100965.75;;;15.73;67.05
34237;BME280;20501;45.956;13.632;2022-11-09T11:31:56;100963.06;;;15.81;67.15
34237;BME280;20501;45.956;13.632;2022-11-09T11:34:21;100970.47;;;15.62;67.57
34237;BME280;20501;45.956;13.632;2022-11-09T11:37:16;100956.50;;;15.92;66.24
34237;BME280;20501;45.956;13.632;2022-11-09T11:40:02;100953.09;;;15.98;66.08
34237;BME280;20501;45.956;13.632;2022-11-09T11:45:28;100941.91;;;14.71;73.08
34237;BME280;20501;45.956;13.632;2022-11-09T11:49:18;100951.50;;;15.10;69.99
34237;BME280;20501;45.956;13.632;2022-11-09T11:52:06;100960.06;;;14.70;74.08
34237;BME280;20501;45.956;13.632;2022-11-09T11:54:54;100955.25;;;14.82;73.77
34237;BME280;20501;45.956;13.632;2022-11-09T12:00:13;100955.94;;;14.84;73.71
34237;BME280;20501;45.956;13.632;2022-11-09T12:05:27;100959.75;;;14.74;74.28
34237;BME280;20501;45.956;13.632;2022-11-09T12:16:30;100955.19;;;15.78;67.84
34237;BME280;20501;45.956;13.632;2022-11-09T12:21:50;100956.88;;;15.01;71.48
34237;BME280;20501;45.956;13.632;2022-11-09T12:24:37;100960.06;;;15.23;71.35
34237;BME280;20501;45.956;13.632;2022-11-09T12:27:20;100965.19;;;14.74;72.56
34237;BME280;20501;45.956;13.632;2022-11-09T12:30:10;100958.06;;;15.33;71.94
34237;BME280;20501;45.956;13.632;2022-11-09T12:35:35;100959.22;;;15.92;67.43
34237;BME280;20501;45.956;13.632;2022-11-09T12:38:20;100959.03;;;15.93;67.08
34237;BME280;20501;45.956;13.632;2022-11-09T12:40:57;100955.84;;;15.63;68.73
34237;BME280;20501;45.956;13.632;2022-11-09T12:43:33;100961.56;;;15.17;74.32
34237;BME280;20501;45.956;13.632;2022-11-09T12:46:00;100959.47;;;15.03;72.21
34237;BME280;20501;45.956;13.632;2022-11-09T12:48:31;100961.31;;;15.63;69.00
34237;BME280;20501;45.956;13.632;2022-11-09T12:50:58;100965.06;;;15.71;68.56
34237;BME280;20501;45.956;13.632;2022-11-09T12:53:31;100963.03;;;15.73;68.50
34237;BME280;20501;45.956;13.632;2022-11-09T12:55:58;100966.66;;;15.82;67.91
34237;BME280;20501;45.956;13.632;2022-11-09T12:58:28;100967.53;;;15.90;68.09
34237;BME280;20501;45.956;13.632;2022-11-09T13:00:59;100954.63;;;16.01;67.18
34237;BME280;20501;45.956;13.632;2022-11-09T13:03:31;100959.94;;;15.68;72.45
34237;BME280;20501;45.956;13.632;2022-11-09T13:08:37;100958.34;;;16.00;67.15
34237;BME280;20501;45.956;13.632;2022-11-09T13:17:00;100961.13;;;16.08;66.90
34237;BME280;20501;45.956;13.632;2022-11-09T13:22:55;100966.00;;;15.88;67.97
34237;BME280;20501;45.956;13.632;2022-11-09T13:24:57;100967.56;;;15.99;67.39
34237;BME280;20501;45.956;13.632;2022-11-09T13:27:47;100963.69;;;16.09;66.88
34237;BME280;20501;45.956;13.632;2022-11-09T13:40:39;100973.31;;;15.18;73.07
34237;BME280;20501;45.956;13.632;2022-11-09T13:45:45;100964.59;;;15.84;68.44
34237;BME280;20501;45.956;13.632;2022-11-09T13:48:34;100958.53;;;15.98;67.93
34237;BME280;20501;45.956;13.632;2022-11-09T13:51:02;100978.84;;;16.12;67.56
34237;BME280;20501;45.956;13.632;2022-11-09T13:58:46;100965.53;;;16.09;67.41
34237;BME280;20501;45.956;13.632;2022-11-09T14:01:35;100968.44;;;16.16;67.24
34237;BME280;20501;45.956;13.632;2022-11-09T14:04:36;100966.41;;;16.18;67.15
34237;BME280;20501;45.956;13.632;2022-11-09T14:07:06;100959.94;;;16.19;66.81
34237;BME280;20501;45.956;13.632;2022-11-09T14:09:50;100954.47;;;16.11;67.58
34237;BME280;20501;45.956;13.632;2022-11-09T14:14:50;100966.41;;;16.18;67.13
34237;BME280;20501;45.956;13.632;2022-11-09T14:17:26;100961.47;;;16.21;67.23
34237;BME280;20501;45.956;13.632;2022-11-09T14:22:24;100960.13;;;16.17;67.35
34237;BME280;20501;45.956;13.632;2022-11-09T14:24:52;100960.97;;;16.18;69.90
34237;BME280;20501;45.956;13.632;2022-11-09T14:27:20;100962.16;;;16.07;68.13
34237;BME280;20501;45.956;13.632;2022-11-09T14:29:51;100958.09;;;16.19;67.40